createdAt,value
2023-01-26T00:01:19.811Z,9.50
2023-01-26T00:03:46.866Z,11.27
2023-01-26T00:06:15.766Z,10.30
2023-01-26T00:08:48.271Z,10.10
2023-01-26T00:11:18.086Z,9.57
2023-01-26T00:13:45.321Z,9.23
2023-01-26T00:16:14.561Z,9.60
2023-01-26T00:18:42.746Z,9.53
2023-01-26T00:21:14.056Z,9.63
2023-01-26T00:23:40.821Z,10.33
2023-01-26T00:26:09.695Z,8.73
2023-01-26T00:28:37.886Z,9.63
2023-01-26T00:31:06.976Z,9.43
2023-01-26T00:33:34.086Z,8.87
2023-01-26T00:36:00.919Z,11.27
2023-01-26T00:38:28.182Z,9.80
2023-01-26T00:40:55.069Z,9.83
2023-01-26T00:43:21.992Z,9.70
2023-01-26T00:45:51.352Z,8.63
2023-01-26T00:48:20.031Z,9.13
2023-01-26T00:50:46.929Z,8.83
2023-01-26T00:53:13.713Z,9.07
2023-01-26T00:55:40.526Z,9.10
2023-01-26T00:58:08.621Z,8.50
2023-01-26T01:00:37.730Z,8.23
2023-01-26T01:03:05.789Z,9.53
2023-01-26T01:05:33.630Z,10.03
2023-01-26T01:08:00.518Z,8.70
2023-01-26T01:10:28.471Z,8.17
2023-01-26T01:12:56.700Z,9.37
2023-01-26T01:15:24.926Z,8.30
2023-01-26T01:17:52.050Z,8.27
2023-01-26T01:20:19.524Z,8.57
2023-01-26T01:22:46.969Z,8.77
2023-01-26T01:25:15.647Z,9.20
2023-01-26T01:27:42.392Z,8.20
2023-01-26T01:30:10.279Z,9.17
2023-01-26T01:32:39.595Z,9.57
2023-01-26T01:35:07.268Z,10.30
2023-01-26T01:37:34.426Z,8.87
2023-01-26T01:40:01.218Z,10.23
2023-01-26T01:42:28.520Z,9.80
2023-01-26T01:45:35.703Z,9.47
2023-01-26T01:48:05.127Z,9.90
2023-01-26T01:50:38.320Z,9.47
2023-01-26T01:53:08.130Z,8.73
2023-01-26T01:55:35.412Z,8.20
2023-01-26T01:58:04.301Z,8.13
2023-01-26T02:00:31.305Z,7.73
2023-01-26T02:03:19.556Z,8.07
2023-01-26T02:06:06.628Z,8.37
2023-01-26T02:08:41.188Z,9.10
2023-01-26T02:11:28.434Z,9.13
2023-01-26T02:13:57.697Z,8.33
2023-01-26T02:16:24.687Z,8.57
2023-01-26T02:18:52.403Z,8.67
2023-01-26T02:21:21.616Z,7.83
2023-01-26T02:23:59.085Z,8.00
2023-01-26T02:26:28.925Z,7.97
2023-01-26T02:28:56.750Z,8.70
2023-01-26T02:31:24.068Z,8.00
2023-01-26T02:33:51.462Z,7.37
2023-01-26T02:36:34.883Z,7.07
2023-01-26T02:39:07.181Z,7.97
2023-01-26T02:41:52.527Z,7.60
2023-01-26T02:44:20.415Z,7.20
2023-01-26T02:46:47.251Z,7.17
2023-01-26T02:49:34.297Z,7.90
2023-01-26T02:52:01.131Z,8.47
2023-01-26T02:54:46.323Z,10.53
2023-01-26T02:57:13.034Z,8.77
2023-01-26T02:59:40.675Z,8.13
2023-01-26T03:02:08.175Z,10.13
2023-01-26T03:04:35.017Z,8.93
2023-01-26T03:07:02.205Z,8.73
2023-01-26T03:09:28.977Z,8.60
2023-01-26T03:11:55.724Z,9.63
2023-01-26T03:14:22.446Z,9.40
2023-01-26T03:16:49.596Z,9.07
2023-01-26T03:19:35.095Z,9.83
2023-01-26T03:22:29.189Z,9.40
2023-01-26T03:25:15.346Z,9.33
2023-01-26T03:27:46.306Z,10.57
2023-01-26T03:30:16.863Z,9.63
2023-01-26T03:32:45.480Z,10.23
2023-01-26T03:35:15.475Z,8.43
2023-01-26T03:37:44.096Z,10.47
2023-01-26T03:40:35.404Z,10.00
2023-01-26T03:43:26.662Z,10.90
2023-01-26T03:46:12.492Z,8.53
2023-01-26T03:48:57.960Z,10.00
2023-01-26T03:51:43.546Z,10.23
2023-01-26T03:54:28.781Z,9.23
2023-01-26T03:56:55.591Z,9.17
2023-01-26T03:59:38.061Z,9.27
2023-01-26T04:02:29.597Z,9.17
2023-01-26T04:05:15.697Z,9.53
2023-01-26T04:08:04.929Z,9.03
2023-01-26T04:10:31.773Z,8.13
2023-01-26T04:13:18.772Z,8.17
2023-01-26T04:16:09.656Z,8.10
2023-01-26T04:18:55.189Z,8.43
2023-01-26T04:21:29.103Z,6.63
2023-01-26T04:23:58.314Z,7.73
2023-01-26T04:26:34.853Z,7.60
2023-01-26T04:29:04.920Z,6.77
2023-01-26T04:31:32.198Z,6.57
2023-01-26T04:34:00.629Z,6.70
2023-01-26T04:36:28.826Z,6.40
2023-01-26T04:38:56.246Z,6.37
2023-01-26T04:41:23.945Z,5.93
2023-01-26T04:43:58.548Z,5.60
2023-01-26T04:46:25.691Z,6.30
2023-01-26T04:48:52.710Z,5.43
2023-01-26T04:51:21.446Z,5.73
2023-01-26T04:53:49.623Z,6.27
2023-01-26T04:56:26.639Z,5.60
2023-01-26T04:58:55.013Z,5.30
2023-01-26T05:01:23.032Z,5.67
2023-01-26T05:03:50.564Z,4.93
2023-01-26T05:06:17.506Z,5.60
2023-01-26T05:08:46.339Z,5.67
2023-01-26T05:11:13.388Z,5.10
2023-01-26T05:13:55.206Z,6.07
2023-01-26T05:16:40.557Z,5.03
2023-01-26T05:19:19.361Z,4.80
2023-01-26T05:21:52.052Z,5.63
2023-01-26T05:24:18.885Z,4.50
2023-01-26T05:27:19.783Z,5.57
2023-01-26T05:29:51.081Z,5.00
2023-01-26T05:32:19.110Z,5.17
2023-01-26T05:34:46.474Z,4.63
2023-01-26T05:37:15.276Z,5.20
2023-01-26T05:39:44.404Z,5.07
2023-01-26T05:42:13.093Z,4.50
2023-01-26T05:45:02.853Z,4.60
2023-01-26T05:47:29.830Z,4.47
2023-01-26T05:49:57.557Z,4.77
2023-01-26T05:52:28.027Z,4.27
2023-01-26T05:54:54.855Z,4.17
2023-01-26T05:57:21.801Z,4.87
2023-01-26T05:59:58.938Z,4.37
2023-01-26T06:02:29.013Z,4.97
2023-01-26T06:04:55.787Z,5.90
2023-01-26T06:07:23.170Z,7.00
2023-01-26T06:10:09.180Z,6.53
2023-01-26T06:12:48.072Z,5.77
2023-01-26T06:15:19.923Z,5.57
2023-01-26T06:17:48.594Z,5.73
2023-01-26T06:20:16.351Z,5.17
2023-01-26T06:22:51.301Z,5.37
2023-01-26T06:25:18.117Z,5.23
2023-01-26T06:27:45.041Z,6.53
2023-01-26T06:30:23.616Z,5.50
2023-01-26T06:32:50.595Z,6.80
2023-01-26T06:35:17.893Z,6.30
2023-01-26T06:37:45.440Z,6.47
2023-01-26T06:40:12.976Z,6.23
2023-01-26T06:42:39.995Z,6.30
2023-01-26T06:45:07.984Z,6.27
2023-01-26T06:47:36.066Z,6.17
2023-01-26T06:50:04.250Z,6.47
2023-01-26T06:52:32.552Z,6.97
2023-01-26T06:55:04.971Z,6.43
2023-01-26T06:57:46.744Z,6.30
2023-01-26T07:00:32.276Z,5.80
2023-01-26T07:03:13.380Z,6.03
2023-01-26T07:05:40.283Z,5.87
2023-01-26T07:08:08.645Z,6.53
2023-01-26T07:10:36.503Z,7.00
2023-01-26T07:13:07.093Z,5.93
2023-01-26T07:15:34.211Z,7.23
2023-01-26T07:18:01.158Z,6.03
2023-01-26T07:20:28.127Z,7.10
2023-01-26T07:22:54.935Z,6.23
2023-01-26T07:25:21.725Z,6.87
2023-01-26T07:27:48.453Z,7.17
2023-01-26T07:30:15.843Z,7.40
2023-01-26T07:32:42.617Z,6.50
2023-01-26T07:35:09.522Z,6.60
2023-01-26T07:37:36.318Z,6.30
2023-01-26T07:40:03.756Z,7.20
2023-01-26T07:42:31.087Z,6.37
2023-01-26T07:45:18.424Z,7.20
2023-01-26T07:47:45.161Z,6.97
2023-01-26T07:50:13.206Z,6.57
2023-01-26T07:52:40.499Z,6.03
2023-01-26T07:55:07.611Z,6.93
2023-01-26T07:57:34.495Z,7.00
2023-01-26T08:00:01.343Z,6.23
2023-01-26T08:02:28.345Z,5.60
2023-01-26T08:04:55.155Z,5.30
2023-01-26T08:07:21.914Z,6.10
2023-01-26T08:09:48.732Z,5.43
2023-01-26T08:12:15.496Z,13.70
2023-01-26T08:14:47.002Z,9.60
2023-01-26T08:17:16.151Z,6.93
2023-01-26T08:19:43.251Z,5.77
2023-01-26T08:22:10.140Z,5.53
2023-01-26T08:24:36.897Z,6.27
2023-01-26T08:27:03.908Z,5.47
2023-01-26T08:29:30.685Z,4.83
2023-01-26T08:31:57.565Z,6.00
2023-01-26T08:34:26.430Z,5.40
2023-01-26T08:36:53.358Z,5.73
2023-01-26T08:39:20.299Z,5.57
2023-01-26T08:41:47.653Z,5.10
2023-01-26T08:44:14.415Z,5.47
2023-01-26T08:46:44.067Z,4.43
2023-01-26T08:49:10.956Z,5.13
2023-01-26T08:51:37.665Z,5.37
2023-01-26T08:54:08.275Z,5.80
2023-01-26T08:56:35.530Z,5.50
2023-01-26T08:59:02.382Z,5.30
2023-01-26T09:01:29.169Z,6.37
2023-01-26T09:03:56.472Z,5.80
2023-01-26T09:06:23.198Z,5.27
2023-01-26T09:08:49.939Z,5.43
2023-01-26T09:11:17.128Z,4.43
2023-01-26T09:13:43.963Z,4.27
2023-01-26T09:16:19.217Z,3.43
2023-01-26T09:18:48.855Z,3.83
2023-01-26T09:21:15.635Z,3.57
2023-01-26T09:23:42.363Z,4.83
2023-01-26T09:26:09.292Z,5.03
2023-01-26T09:28:36.082Z,7.23
2023-01-26T09:31:08.892Z,6.70
2023-01-26T09:33:35.686Z,6.23
2023-01-26T09:36:07.840Z,6.30
2023-01-26T09:38:34.875Z,7.40
2023-01-26T09:41:06.606Z,6.17
2023-01-26T09:43:42.955Z,4.97
2023-01-26T09:46:26.626Z,4.60
2023-01-26T09:49:10.589Z,3.97
2023-01-26T09:51:49.222Z,3.73
2023-01-26T09:54:31.373Z,4.67
2023-01-26T09:57:01.835Z,4.83
2023-01-26T09:59:49.794Z,4.80
2023-01-26T10:02:25.681Z,4.77
2023-01-26T10:04:58.402Z,5.17
2023-01-26T10:07:25.219Z,5.43
2023-01-26T10:09:53.648Z,5.47
2023-01-26T10:12:28.245Z,5.13
2023-01-26T10:15:31.338Z,4.33
2023-01-26T10:18:03.208Z,5.83
2023-01-26T10:20:43.308Z,5.70
2023-01-26T10:23:24.860Z,5.70
2023-01-26T10:25:54.206Z,5.37
2023-01-26T10:28:35.205Z,5.37
2023-01-26T10:31:04.337Z,5.30
2023-01-26T10:33:37.025Z,5.53
2023-01-26T10:36:06.851Z,5.17
2023-01-26T10:38:33.602Z,4.93
2023-01-26T10:41:03.297Z,4.97
2023-01-26T10:43:35.849Z,4.53
2023-01-26T10:46:04.484Z,4.13
2023-01-26T10:48:31.546Z,3.97
2023-01-26T10:51:16.603Z,4.30
2023-01-26T10:53:43.350Z,3.90
2023-01-26T10:56:14.881Z,4.27
2023-01-26T10:58:49.723Z,4.43
2023-01-26T11:01:18.751Z,3.80
2023-01-26T11:04:12.096Z,3.47
2023-01-26T11:06:39.187Z,4.20
2023-01-26T11:09:10.166Z,5.30
2023-01-26T11:11:37.879Z,5.43
2023-01-26T11:14:19.292Z,5.13
2023-01-26T11:17:08.017Z,5.13
2023-01-26T11:19:49.607Z,6.77
2023-01-26T11:22:33.859Z,5.33
2023-01-26T11:25:48.144Z,5.30
2023-01-26T11:28:32.176Z,3.83
2023-01-26T11:31:32.952Z,4.10
2023-01-26T11:34:08.128Z,4.37
2023-01-26T11:36:55.643Z,4.70
2023-01-26T11:39:46.242Z,5.57
2023-01-26T11:42:58.537Z,6.57
2023-01-26T11:45:34.661Z,5.80
2023-01-26T11:48:07.667Z,5.93
2023-01-26T11:50:50.518Z,5.60
2023-01-26T11:53:26.098Z,4.47
2023-01-26T11:56:02.031Z,4.50
2023-01-26T11:58:55.227Z,4.47
2023-01-26T12:01:38.210Z,5.30
2023-01-26T12:04:05.062Z,4.60
2023-01-26T12:06:42.258Z,4.77
2023-01-26T12:09:22.843Z,4.83
2023-01-26T12:12:00.336Z,3.60
2023-01-26T12:14:53.040Z,4.67
2023-01-26T12:17:44.631Z,5.20
2023-01-26T12:20:29.258Z,4.83
2023-01-26T12:23:13.256Z,5.33
2023-01-26T12:25:42.620Z,4.90
2023-01-26T12:28:12.648Z,5.07
2023-01-26T12:30:52.138Z,5.30
2023-01-26T12:33:19.477Z,4.20
2023-01-26T12:36:07.939Z,5.43
2023-01-26T12:38:40.688Z,4.60
2023-01-26T12:41:17.473Z,4.83
2023-01-26T12:44:29.211Z,4.83
2023-01-26T12:47:08.626Z,4.27
2023-01-26T12:49:41.247Z,4.63
2023-01-26T12:52:28.256Z,4.90
2023-01-26T12:55:05.083Z,4.80
2023-01-26T12:57:42.850Z,5.17
2023-01-26T13:00:34.480Z,5.10
2023-01-26T13:03:18.811Z,5.87
2023-01-26T13:06:02.772Z,5.77
2023-01-26T13:08:32.517Z,5.33
2023-01-26T13:11:07.631Z,5.33
2023-01-26T13:13:55.641Z,4.90
2023-01-26T13:16:33.679Z,5.07
2023-01-26T13:19:02.203Z,5.53
2023-01-26T13:21:38.056Z,5.87
2023-01-26T13:24:16.938Z,5.20
2023-01-26T13:26:52.206Z,4.77
2023-01-26T13:29:33.150Z,4.77
2023-01-26T13:32:10.372Z,5.27
2023-01-26T13:34:44.925Z,5.67
2023-01-26T13:37:41.294Z,5.70
2023-01-26T13:40:38.088Z,6.20
2023-01-26T13:43:32.714Z,5.93
2023-01-26T13:46:31.682Z,5.33
2023-01-26T13:48:58.408Z,6.37
2023-01-26T13:51:26.640Z,6.27
2023-01-26T13:54:06.863Z,5.90
2023-01-26T13:56:38.989Z,6.13
2023-01-26T13:59:14.250Z,5.83
2023-01-26T14:01:46.044Z,5.40
2023-01-26T14:04:15.958Z,5.83
2023-01-26T14:06:47.412Z,6.33
2023-01-26T14:09:15.614Z,5.63
2023-01-26T14:11:43.638Z,5.23
2023-01-26T14:14:24.712Z,4.87
2023-01-26T14:16:51.682Z,5.27
2023-01-26T14:19:22.968Z,4.60
2023-01-26T14:21:58.389Z,5.47
2023-01-26T14:24:34.631Z,4.97
2023-01-26T14:27:03.701Z,5.23
2023-01-26T14:29:30.979Z,5.00
2023-01-26T14:31:59.949Z,5.63
2023-01-26T14:34:29.144Z,5.30
2023-01-26T14:37:05.994Z,5.00
2023-01-26T14:39:32.879Z,5.90
2023-01-26T14:42:00.530Z,5.53
2023-01-26T14:44:27.402Z,5.17
2023-01-26T14:47:00.886Z,5.37
2023-01-26T14:49:45.824Z,5.13
2023-01-26T14:52:25.721Z,5.97
2023-01-26T14:54:58.673Z,4.77
2023-01-26T14:57:27.788Z,5.20
2023-01-26T14:59:58.704Z,4.97
2023-01-26T15:02:37.591Z,4.83
2023-01-26T15:05:20.669Z,5.67
2023-01-26T15:07:57.422Z,6.07
2023-01-26T15:10:29.915Z,5.23
2023-01-26T15:13:08.293Z,5.70
2023-01-26T15:15:38.474Z,6.33
2023-01-26T15:18:13.957Z,5.83
2023-01-26T15:21:00.337Z,5.93
2023-01-26T15:23:29.089Z,5.47
2023-01-26T15:26:03.620Z,7.13
2023-01-26T15:28:31.089Z,5.73
2023-01-26T15:30:58.142Z,5.50
2023-01-26T15:33:50.773Z,7.37
2023-01-26T15:36:26.794Z,6.67
2023-01-26T15:39:01.454Z,5.43
2023-01-26T15:41:29.076Z,5.97
2023-01-26T15:43:57.216Z,7.13
2023-01-26T15:46:24.227Z,7.17
2023-01-26T15:48:50.965Z,6.50
2023-01-26T15:51:17.809Z,6.50
2023-01-26T15:53:44.548Z,5.83
2023-01-26T15:56:13.519Z,7.20
2023-01-26T15:58:40.726Z,7.00
2023-01-26T16:01:10.066Z,7.17
2023-01-26T16:03:36.827Z,8.07
2023-01-26T16:06:03.669Z,7.03
2023-01-26T16:08:30.405Z,6.80
2023-01-26T16:10:58.089Z,6.93
2023-01-26T16:13:24.920Z,7.70
2023-01-26T16:15:53.905Z,7.77
2023-01-26T16:18:20.964Z,8.17
2023-01-26T16:20:49.268Z,7.53
2023-01-26T16:23:25.071Z,6.93
2023-01-26T16:25:52.443Z,7.77
2023-01-26T16:28:19.599Z,9.53
2023-01-26T16:30:47.986Z,9.63
2023-01-26T16:33:17.833Z,9.77
2023-01-26T16:35:44.607Z,8.10
2023-01-26T16:38:14.148Z,8.20
2023-01-26T16:40:43.105Z,7.93
2023-01-26T16:43:23.668Z,6.90
2023-01-26T16:45:51.098Z,8.30
2023-01-26T16:48:18.195Z,7.67
2023-01-26T16:50:45.526Z,10.10
2023-01-26T16:53:35.840Z,10.07
2023-01-26T16:56:03.579Z,8.10
2023-01-26T16:58:33.137Z,9.07
2023-01-26T17:01:00.398Z,7.73
2023-01-26T17:03:27.265Z,7.90
2023-01-26T17:05:56.192Z,8.03
2023-01-26T17:08:23.289Z,7.20
2023-01-26T17:11:01.487Z,7.33
2023-01-26T17:13:29.223Z,7.63
2023-01-26T17:15:57.128Z,7.83
2023-01-26T17:18:24.637Z,6.83
2023-01-26T17:20:51.505Z,7.40
2023-01-26T17:23:18.302Z,6.93
2023-01-26T17:25:45.035Z,7.20
2023-01-26T17:28:11.855Z,7.80
2023-01-26T17:30:38.687Z,8.10
2023-01-26T17:33:05.436Z,6.83
2023-01-26T17:35:32.143Z,7.77
2023-01-26T17:37:58.901Z,6.70
2023-01-26T17:40:25.629Z,6.63
2023-01-26T17:42:52.388Z,6.20
2023-01-26T17:45:19.157Z,6.13
2023-01-26T17:47:45.896Z,6.43
2023-01-26T17:50:12.666Z,6.67
2023-01-26T17:52:39.519Z,6.00
2023-01-26T17:55:07.289Z,6.67
2023-01-26T17:57:34.376Z,6.47
2023-01-26T18:00:01.338Z,6.43
2023-01-26T18:02:28.240Z,6.63
2023-01-26T18:04:55.047Z,6.53
2023-01-26T18:07:23.103Z,6.03
2023-01-26T18:09:49.850Z,6.67
2023-01-26T18:12:16.580Z,6.47
2023-01-26T18:14:43.320Z,6.83
2023-01-26T18:17:10.076Z,6.53
2023-01-26T18:19:36.839Z,6.03
2023-01-26T18:22:03.618Z,6.27
2023-01-26T18:24:30.600Z,6.43
2023-01-26T18:26:57.408Z,6.33
2023-01-26T18:29:24.139Z,5.87
2023-01-26T18:31:51.131Z,5.27
2023-01-26T18:34:18.006Z,5.80
2023-01-26T18:36:44.748Z,5.20
2023-01-26T18:39:16.710Z,5.13
2023-01-26T18:41:44.053Z,4.93
2023-01-26T18:44:11.117Z,5.40
2023-01-26T18:46:38.318Z,5.27
2023-01-26T18:49:05.403Z,5.13
2023-01-26T18:51:35.218Z,5.47
2023-01-26T18:54:04.762Z,5.03
2023-01-26T18:56:31.996Z,5.77
2023-01-26T18:58:58.910Z,5.33
2023-01-26T19:01:26.220Z,6.87
2023-01-26T19:03:57.661Z,6.40
2023-01-26T19:06:26.095Z,6.73
2023-01-26T19:08:57.595Z,7.10
2023-01-26T19:11:27.456Z,8.27
2023-01-26T19:13:55.191Z,7.70
2023-01-26T19:16:22.538Z,6.40
2023-01-26T19:18:49.902Z,5.80
2023-01-26T19:21:17.387Z,6.73
2023-01-26T19:23:45.186Z,5.77
2023-01-26T19:26:20.696Z,6.63
2023-01-26T19:28:50.647Z,7.03
2023-01-26T19:31:20.118Z,6.10
2023-01-26T19:34:01.015Z,5.37
2023-01-26T19:36:29.819Z,6.30
2023-01-26T19:38:56.975Z,6.27
2023-01-26T19:41:24.993Z,7.47
2023-01-26T19:43:52.398Z,7.47
2023-01-26T19:46:20.263Z,8.07
2023-01-26T19:48:47.596Z,6.40
2023-01-26T19:51:15.910Z,6.57
2023-01-26T19:53:44.930Z,5.57
2023-01-26T19:56:21.816Z,6.07
2023-01-26T19:58:52.942Z,6.43
2023-01-26T20:01:21.317Z,5.97
2023-01-26T20:03:52.844Z,6.77
2023-01-26T20:06:21.444Z,6.23
2023-01-26T20:08:48.459Z,5.83
2023-01-26T20:11:15.708Z,7.77
2023-01-26T20:13:42.718Z,6.27
2023-01-26T20:16:11.469Z,6.57
2023-01-26T20:18:38.509Z,6.40
2023-01-26T20:21:07.161Z,7.70
2023-01-26T20:23:34.776Z,6.83
2023-01-26T20:26:07.338Z,5.90
2023-01-26T20:28:35.117Z,5.50
2023-01-26T20:31:11.591Z,6.40
2023-01-26T20:33:39.213Z,5.30
2023-01-26T20:36:08.201Z,5.87
2023-01-26T20:38:35.461Z,6.73
2023-01-26T20:41:09.869Z,6.67
2023-01-26T20:43:41.425Z,5.90
2023-01-26T20:46:12.015Z,5.50
2023-01-26T20:48:39.531Z,6.60
2023-01-26T20:51:11.575Z,5.43
2023-01-26T20:53:38.651Z,5.87
2023-01-26T20:56:08.987Z,5.97
2023-01-26T20:58:36.391Z,5.60
2023-01-26T21:01:07.889Z,5.03
2023-01-26T21:03:37.048Z,5.50
2023-01-26T21:06:05.087Z,4.97
2023-01-26T21:08:32.944Z,4.50
2023-01-26T21:11:01.000Z,5.50
2023-01-26T21:13:28.223Z,4.43
2023-01-26T21:15:55.531Z,4.37
2023-01-26T21:18:22.371Z,4.50
2023-01-26T21:21:17.662Z,5.97
2023-01-26T21:23:45.078Z,6.60
2023-01-26T21:26:14.773Z,6.37
2023-01-26T21:28:41.665Z,5.57
2023-01-26T21:31:15.569Z,5.00
2023-01-26T21:33:46.123Z,5.37
2023-01-26T21:36:15.592Z,6.67
2023-01-26T21:38:44.959Z,5.93
2023-01-26T21:41:33.237Z,5.50
2023-01-26T21:44:03.990Z,5.77
2023-01-26T21:46:30.842Z,6.27
2023-01-26T21:48:57.999Z,5.50
2023-01-26T21:51:44.708Z,5.37
2023-01-26T21:54:12.647Z,5.23
2023-01-26T21:56:39.694Z,6.20
2023-01-26T21:59:10.116Z,6.10
2023-01-26T22:01:42.339Z,6.70
2023-01-26T22:04:13.501Z,6.03
2023-01-26T22:06:40.299Z,6.17
2023-01-26T22:09:11.397Z,5.57
2023-01-26T22:11:39.239Z,5.57
2023-01-26T22:14:07.591Z,5.60
2023-01-26T22:16:34.526Z,6.23
2023-01-26T22:19:01.412Z,5.67
2023-01-26T22:21:28.191Z,6.10
2023-01-26T22:23:55.316Z,6.17
2023-01-26T22:26:23.126Z,5.80
2023-01-26T22:28:51.959Z,5.87
2023-01-26T22:31:20.366Z,5.70
2023-01-26T22:33:47.509Z,5.37
2023-01-26T22:36:14.761Z,5.43
2023-01-26T22:38:41.944Z,5.13
2023-01-26T22:41:14.691Z,5.00
2023-01-26T22:43:42.174Z,5.77
2023-01-26T22:46:11.523Z,5.53
2023-01-26T22:48:38.586Z,5.90
2023-01-26T22:51:21.454Z,5.77
2023-01-26T22:53:49.807Z,5.40
2023-01-26T22:56:17.349Z,6.33
2023-01-26T22:58:56.973Z,5.77
2023-01-26T23:01:26.742Z,6.17
2023-01-26T23:03:54.995Z,5.90
2023-01-26T23:06:21.899Z,5.73
2023-01-26T23:08:49.067Z,6.60
2023-01-26T23:11:19.209Z,6.67
2023-01-26T23:13:47.626Z,5.90
2023-01-26T23:16:14.525Z,6.53
2023-01-26T23:18:41.583Z,6.03
2023-01-26T23:21:09.483Z,6.10
2023-01-26T23:23:38.160Z,6.80
2023-01-26T23:26:05.001Z,6.20
2023-01-26T23:28:34.209Z,6.20
2023-01-26T23:31:01.724Z,6.83
2023-01-26T23:33:30.820Z,6.20
2023-01-26T23:35:58.233Z,6.67
2023-01-26T23:38:27.085Z,5.57
2023-01-26T23:40:54.173Z,5.87
2023-01-26T23:43:21.725Z,6.30
2023-01-26T23:45:51.363Z,5.97
2023-01-26T23:48:19.138Z,6.10
2023-01-26T23:50:46.816Z,5.80
2023-01-26T23:53:14.099Z,5.97
2023-01-26T23:55:42.477Z,6.40
2023-01-26T23:58:10.217Z,6.60
